createdAt,value
2019-01-25T00:04:24.648Z,100284.89
2019-01-25T00:09:26.961Z,100288.36
2019-01-25T00:14:29.380Z,100284.03
2019-01-25T00:19:31.503Z,100285.78
2019-01-25T00:24:33.495Z,100287.09
2019-01-25T00:29:35.869Z,100281.86
2019-01-25T00:34:37.932Z,100285.35
2019-01-25T00:39:39.952Z,100275.37
2019-01-25T00:44:42.253Z,100278.39
2019-01-25T00:49:44.498Z,100290.55
2019-01-25T00:54:46.889Z,100284.05
2019-01-25T00:59:48.971Z,100285.33
2019-01-25T01:04:51.005Z,100280.98
2019-01-25T01:09:53.065Z,100294.47
2019-01-25T01:14:55.067Z,100290.98
2019-01-25T01:19:57.193Z,100292.73
2019-01-25T01:24:59.216Z,100302.72
2019-01-25T01:30:01.279Z,100308.36
2019-01-25T01:35:25.740Z,100302.29
2019-01-25T01:40:27.800Z,100304.44
2019-01-25T01:45:29.832Z,100304.89
2019-01-25T01:50:32.255Z,100304.47
2019-01-25T01:55:34.332Z,100300.97
2019-01-25T02:00:36.565Z,100306.17
2019-01-25T02:05:39.006Z,100307.92
2019-01-25T02:10:41.059Z,100296.18
2019-01-25T02:15:43.032Z,100305.33
2019-01-25T02:20:45.064Z,100294.45
2019-01-25T02:25:47.551Z,100297.05
2019-01-25T02:30:49.584Z,100298.36
2019-01-25T02:35:51.559Z,100295.73
2019-01-25T02:40:53.606Z,100281.86
2019-01-25T02:46:15.142Z,100282.29
2019-01-25T02:51:17.155Z,100278.78
2019-01-25T02:56:19.223Z,100283.57
2019-01-25T03:01:21.279Z,100288.36
2019-01-25T03:06:23.325Z,100290.95
2019-01-25T03:11:25.420Z,100290.52
2019-01-25T03:16:27.486Z,100301.80
2019-01-25T03:21:29.477Z,100294.42
2019-01-25T03:26:31.928Z,100304.39
2019-01-25T03:31:34.286Z,100301.36
2019-01-25T03:36:36.311Z,100290.91
2019-01-25T03:41:38.371Z,100296.56
2019-01-25T03:46:40.706Z,100298.75
2019-01-25T03:51:43.102Z,100296.59
2019-01-25T03:56:45.159Z,100298.75
2019-01-25T04:01:47.212Z,100306.98
2019-01-25T04:06:49.250Z,100309.62
2019-01-25T04:11:51.680Z,100305.27
2019-01-25T04:16:53.708Z,100307.44
2019-01-25T04:21:56.094Z,100312.23
2019-01-25T04:26:58.112Z,100308.75
2019-01-25T04:32:00.146Z,100294.41
2019-01-25T04:37:02.176Z,100306.98
2019-01-25T04:42:04.589Z,100310.91
2019-01-25T04:47:06.967Z,100313.52
2019-01-25T04:52:28.452Z,100313.11
2019-01-25T04:57:30.502Z,100320.91
2019-01-25T05:02:32.541Z,100317.42
2019-01-25T05:07:34.697Z,100323.05
2019-01-25T05:12:36.800Z,100330.91
2019-01-25T05:17:38.823Z,100321.77
2019-01-25T05:22:41.219Z,100333.07
2019-01-25T05:27:43.292Z,100333.11
2019-01-25T05:32:45.550Z,100333.08
2019-01-25T05:37:47.658Z,100340.47
2019-01-25T05:42:49.688Z,100335.71
2019-01-25T05:47:51.723Z,100335.72
2019-01-25T05:52:53.737Z,100343.09
2019-01-25T05:58:15.206Z,100344.84
2019-01-25T06:03:17.319Z,100346.59
2019-01-25T06:08:43.882Z,100347.45
2019-01-25T06:13:44.002Z,100349.17
2019-01-25T06:18:46.040Z,100355.26
2019-01-25T06:24:28.876Z,100359.19
2019-01-25T06:29:33.173Z,100360.47
2019-01-25T06:34:35.503Z,100377.84
2019-01-25T06:39:37.563Z,100390.02
2019-01-25T06:44:39.663Z,100396.95
2019-01-25T06:49:41.913Z,100407.39
2019-01-25T06:54:44.168Z,100411.75
2019-01-25T06:59:46.249Z,100402.62
2019-01-25T07:04:48.634Z,100410.86
2019-01-25T07:09:50.845Z,100407.39
2019-01-25T07:14:52.927Z,100404.78
2019-01-25T07:19:54.961Z,100409.98
2019-01-25T07:24:57.473Z,100412.61
2019-01-25T07:30:01.088Z,100422.16
2019-01-25T07:35:44.150Z,100421.30
2019-01-25T07:40:46.456Z,100427.79
2019-01-25T07:45:48.617Z,100425.64
2019-01-25T07:50:50.687Z,100428.24
2019-01-25T07:55:52.709Z,100438.67
2019-01-25T08:00:54.789Z,100443.46
2019-01-25T08:05:56.799Z,100444.73
2019-01-25T08:10:58.830Z,100447.79
2019-01-25T08:16:01.150Z,100436.48
2019-01-25T08:21:03.292Z,100446.48
2019-01-25T08:26:05.723Z,100441.72
2019-01-25T08:31:07.698Z,100449.95
2019-01-25T08:36:09.926Z,100459.52
2019-01-25T08:41:12.022Z,100448.62
2019-01-25T08:46:14.111Z,100448.67
2019-01-25T08:51:16.581Z,100449.09
2019-01-25T08:56:18.771Z,100456.49
2019-01-25T09:01:20.707Z,100466.90
2019-01-25T09:06:22.784Z,100467.79
2019-01-25T09:11:24.893Z,100474.72
2019-01-25T09:16:26.977Z,100471.25
2019-01-25T09:21:29.038Z,100469.52
2019-01-25T09:26:31.120Z,100478.61
2019-01-25T09:31:33.328Z,100479.94
2019-01-25T09:36:35.328Z,100492.97
2019-01-25T09:41:37.512Z,100496.91
2019-01-25T09:46:40.158Z,100497.78
2019-01-25T09:51:42.186Z,100494.72
2019-01-25T09:56:44.231Z,100496.45
2019-01-25T10:01:46.487Z,100490.81
2019-01-25T10:06:48.586Z,100484.73
2019-01-25T10:11:50.562Z,100495.59
2019-01-25T10:16:52.666Z,100489.48
2019-01-25T10:21:55.507Z,100479.47
2019-01-25T10:26:57.573Z,100492.08
2019-01-25T10:31:59.730Z,100489.87
2019-01-25T10:37:02.021Z,100486.01
2019-01-25T10:42:04.076Z,100479.02
2019-01-25T10:47:06.138Z,100466.81
2019-01-25T10:52:09.146Z,100472.04
2019-01-25T10:57:11.185Z,100455.92
2019-01-25T11:02:32.825Z,100451.53
2019-01-25T11:07:34.908Z,100446.36
2019-01-25T11:12:37.418Z,100440.63
2019-01-25T11:17:39.499Z,100447.55
2019-01-25T11:22:41.514Z,100448.44
2019-01-25T11:27:44.620Z,100441.89
2019-01-25T11:32:47.146Z,100450.13
2019-01-25T11:37:49.162Z,100450.99
2019-01-25T11:42:51.632Z,100449.67
2019-01-25T11:47:54.106Z,100437.91
2019-01-25T11:52:56.255Z,100440.50
2019-01-25T11:57:58.725Z,100446.11
2019-01-25T12:03:00.737Z,100455.66
2019-01-25T12:08:24.067Z,100457.50
2019-01-25T12:13:26.138Z,100456.56
2019-01-25T12:18:28.560Z,100446.88
2019-01-25T12:23:30.601Z,100438.43
2019-01-25T12:28:32.718Z,100432.83
2019-01-25T12:33:35.206Z,100435.41
2019-01-25T12:38:37.232Z,100434.94
2019-01-25T12:43:39.316Z,100428.00
2019-01-25T12:48:41.344Z,100424.84
2019-01-25T12:53:55.760Z,100414.43
2019-01-25T12:58:57.893Z,100404.39
2019-01-25T13:03:59.994Z,100409.16
2019-01-25T13:09:04.392Z,100416.55
2019-01-25T13:14:06.473Z,100407.45
2019-01-25T13:19:08.554Z,100422.17
2019-01-25T13:24:10.755Z,100417.42
2019-01-25T13:29:12.860Z,100433.46
2019-01-25T13:34:14.934Z,100439.95
2019-01-25T13:39:17.040Z,100433.42
2019-01-25T13:44:19.071Z,100425.98
2019-01-25T13:49:21.171Z,100421.95
2019-01-25T13:54:23.279Z,100419.38
2019-01-25T13:59:25.432Z,100415.04
2019-01-25T14:04:27.545Z,100440.31
2019-01-25T14:09:29.603Z,100444.58
2019-01-25T14:19:47.999Z,100403.47
2019-01-25T14:24:51.001Z,100409.99
2019-01-25T14:29:53.021Z,100399.97
2019-01-25T14:34:55.136Z,100400.41
2019-01-25T14:39:57.414Z,100408.17
2019-01-25T14:44:59.523Z,100397.70
2019-01-25T14:50:01.552Z,100366.23
2019-01-25T14:55:04.410Z,100374.14
2019-01-25T15:00:07.740Z,100359.77
2019-01-25T15:05:14.854Z,100370.19
2019-01-25T15:10:19.393Z,100367.23
2019-01-25T15:15:21.477Z,100361.97
2019-01-25T15:20:26.068Z,100380.23
2019-01-25T15:25:28.117Z,100373.23
2019-01-25T15:30:43.907Z,100376.68
2019-01-25T15:35:46.231Z,100369.22
2019-01-25T15:40:48.392Z,100366.28
2019-01-25T15:45:50.479Z,100360.53
2019-01-25T15:50:52.520Z,100350.06
2019-01-25T15:55:54.623Z,100339.45
2019-01-25T16:00:56.681Z,100334.61
2019-01-25T16:05:58.697Z,100346.75
2019-01-25T16:11:00.819Z,100364.22
2019-01-25T16:16:03.060Z,100362.41
2019-01-25T16:21:05.084Z,100362.41
2019-01-25T16:26:07.221Z,100362.88
2019-01-25T16:31:09.419Z,100367.76
2019-01-25T16:36:11.516Z,100368.56
2019-01-25T16:41:13.562Z,100365.50
2019-01-25T16:46:15.664Z,100375.12
2019-01-25T16:51:17.836Z,100363.63
2019-01-25T16:56:19.870Z,100356.05
2019-01-25T17:01:21.877Z,100362.63
2019-01-25T17:06:23.899Z,100360.28
2019-01-25T17:11:26.032Z,100366.73
2019-01-25T17:16:28.378Z,100372.84
2019-01-25T17:21:30.492Z,100369.80
2019-01-25T17:26:32.597Z,100358.48
2019-01-25T17:31:34.665Z,100349.35
2019-01-25T17:36:36.773Z,100349.37
2019-01-25T17:41:39.623Z,100373.34
2019-01-25T17:46:41.681Z,100379.90
2019-01-25T17:51:43.756Z,100360.70
2019-01-25T17:56:45.839Z,100353.28
2019-01-25T18:01:47.898Z,100345.74
2019-01-25T18:06:49.893Z,100340.59
2019-01-25T18:11:51.928Z,100339.19
2019-01-25T18:16:53.984Z,100339.06
2019-01-25T18:21:55.958Z,100339.38
2019-01-25T18:26:58.003Z,100325.89
2019-01-25T18:32:00.367Z,100321.23
2019-01-25T18:37:02.486Z,100318.70
2019-01-25T18:42:04.492Z,100320.94
2019-01-25T18:47:06.477Z,100325.80
2019-01-25T18:52:08.528Z,100328.42
2019-01-25T18:57:10.540Z,100320.20
2019-01-25T19:02:12.605Z,100317.17
2019-01-25T19:07:14.618Z,100311.96
2019-01-25T19:12:16.663Z,100312.41
2019-01-25T19:17:18.714Z,100321.58
2019-01-25T19:22:20.757Z,100318.16
2019-01-25T19:27:22.798Z,100303.39
2019-01-25T19:32:24.813Z,100305.19
2019-01-25T19:37:26.887Z,100308.72
2019-01-25T19:42:28.950Z,100305.75
2019-01-25T19:47:31.029Z,100299.31
2019-01-25T19:52:33.150Z,100290.22
2019-01-25T19:57:35.241Z,100289.41
2019-01-25T20:02:37.275Z,100284.31
2019-01-25T20:07:39.290Z,100287.84
2019-01-25T20:12:41.876Z,100287.09
2019-01-25T20:17:43.995Z,100280.13
2019-01-25T20:22:46.041Z,100276.28
2019-01-25T20:28:09.354Z,100270.27
2019-01-25T20:33:11.471Z,100252.94
2019-01-25T20:38:13.587Z,100242.53
2019-01-25T20:43:15.985Z,100246.08
2019-01-25T20:48:18.021Z,100244.33
2019-01-25T20:53:20.128Z,100246.12
2019-01-25T20:58:22.661Z,100246.97
2019-01-25T21:03:24.651Z,100250.05
2019-01-25T21:08:26.735Z,100242.20
2019-01-25T21:13:28.922Z,100230.91
2019-01-25T21:18:30.980Z,100218.25
2019-01-25T21:23:33.037Z,100219.48
2019-01-25T21:28:35.036Z,100208.18
2019-01-25T21:33:37.074Z,100208.60
2019-01-25T21:38:39.146Z,100198.11
2019-01-25T21:43:41.226Z,100190.24
2019-01-25T21:48:43.239Z,100180.70
2019-01-25T21:53:45.330Z,100173.69
2019-01-25T21:58:47.668Z,100163.62
2019-01-25T22:03:49.648Z,100164.51
2019-01-25T22:08:51.708Z,100164.03
2019-01-25T22:13:53.771Z,100163.98
2019-01-25T22:18:55.855Z,100159.58
2019-01-25T22:23:57.887Z,100150.39
2019-01-25T22:28:59.879Z,100140.34
2019-01-25T22:34:01.911Z,100136.87
2019-01-25T22:39:46.432Z,100131.19
2019-01-25T22:45:08.095Z,100122.04
2019-01-25T22:50:14.228Z,100121.53
2019-01-25T22:55:17.594Z,100122.84
2019-01-25T23:01:01.919Z,100113.20
2019-01-25T23:06:42.869Z,100095.34
2019-01-25T23:11:44.969Z,100102.70
2019-01-25T23:16:47.180Z,100097.89
2019-01-25T23:21:50.363Z,100097.82
2019-01-25T23:26:53.442Z,100096.52
2019-01-25T23:31:55.439Z,100090.77
2019-01-25T23:36:57.496Z,100088.15
2019-01-25T23:41:59.766Z,100081.61
2019-01-25T23:47:01.790Z,100061.53
2019-01-25T23:52:04.021Z,100059.81
2019-01-25T23:57:06.128Z,100051.92
